createdAt,value
2022-11-21T00:05:26.080Z,0
2022-11-21T00:07:52.756Z,0
2022-11-21T00:10:19.423Z,0
2022-11-21T00:12:44.651Z,0
2022-11-21T00:15:11.344Z,0
2022-11-21T00:17:38.019Z,0
2022-11-21T00:20:04.701Z,0
2022-11-21T00:22:31.407Z,0
2022-11-21T00:24:58.071Z,0
2022-11-21T00:27:24.769Z,0
2022-11-21T00:29:51.448Z,0
2022-11-21T00:34:44.811Z,0
2022-11-21T00:37:11.507Z,0
2022-11-21T00:39:38.177Z,0
2022-11-21T00:42:04.879Z,0
2022-11-21T00:44:31.559Z,0
2022-11-21T00:46:58.247Z,0
2022-11-21T00:49:24.929Z,0
2022-11-21T00:51:50.146Z,0
2022-11-21T00:54:16.847Z,0
2022-11-21T00:56:43.515Z,0
2022-11-21T00:59:08.772Z,0
2022-11-21T01:01:33.988Z,0
2022-11-21T01:04:00.666Z,0
2022-11-21T01:06:27.361Z,0
2022-11-21T01:11:20.725Z,0
2022-11-21T01:13:47.418Z,0
2022-11-21T01:16:14.104Z,0
2022-11-21T01:18:40.782Z,0
2022-11-21T01:21:07.483Z,0
2022-11-21T01:26:00.825Z,0
2022-11-21T01:28:27.515Z,0
2022-11-21T01:30:54.215Z,0
2022-11-21T01:35:46.134Z,0
2022-11-21T01:40:38.076Z,0
2022-11-21T01:43:04.761Z,0
2022-11-21T01:45:30.012Z,0
2022-11-21T01:47:55.242Z,0
2022-11-21T01:50:21.921Z,0
2022-11-21T01:52:48.614Z,0
2022-11-21T01:55:15.289Z,0
2022-11-21T01:57:41.981Z,0
2022-11-21T02:00:08.661Z,0
2022-11-21T02:02:35.338Z,0
2022-11-21T02:05:02.031Z,0
2022-11-21T02:07:28.727Z,0
2022-11-21T02:09:55.404Z,0
2022-11-21T02:12:22.103Z,0
2022-11-21T02:14:48.773Z,0
2022-11-21T02:17:14.009Z,0
2022-11-21T02:19:40.707Z,0
2022-11-21T02:22:05.930Z,0
2022-11-21T02:24:32.612Z,0
2022-11-21T02:26:59.294Z,0
2022-11-21T02:29:25.980Z,0
2022-11-21T02:34:19.360Z,0
2022-11-21T02:36:46.031Z,0
2022-11-21T02:39:12.730Z,0
2022-11-21T02:41:39.413Z,0
2022-11-21T02:44:06.107Z,0
2022-11-21T02:46:32.775Z,0
2022-11-21T02:48:59.460Z,0
2022-11-21T02:51:26.150Z,0
2022-11-21T02:53:52.844Z,0
2022-11-21T02:56:19.519Z,0
2022-11-21T02:58:46.205Z,0
2022-11-21T03:03:38.162Z,0
2022-11-21T03:06:03.352Z,0
2022-11-21T03:08:30.080Z,0
2022-11-21T03:10:55.268Z,0
2022-11-21T03:13:21.965Z,0
2022-11-21T03:18:15.328Z,0
2022-11-21T03:20:42.022Z,0
2022-11-21T03:23:08.699Z,0
2022-11-21T03:25:35.360Z,0
2022-11-21T03:28:02.067Z,0
2022-11-21T03:30:28.743Z,0
2022-11-21T03:32:55.440Z,0
2022-11-21T03:35:22.117Z,0
2022-11-21T03:37:48.794Z,0
2022-11-21T03:42:42.169Z,0
2022-11-21T03:45:07.389Z,0
2022-11-21T03:47:34.085Z,0
2022-11-21T03:50:00.756Z,0
2022-11-21T03:52:27.445Z,0
2022-11-21T03:54:54.125Z,0
2022-11-21T03:57:20.816Z,0
2022-11-21T03:59:47.494Z,0
2022-11-21T04:02:14.192Z,0
2022-11-21T04:04:40.872Z,0
2022-11-21T04:07:07.549Z,0
2022-11-21T04:09:32.809Z,0
2022-11-21T04:14:24.721Z,0
2022-11-21T04:16:51.400Z,0
2022-11-21T04:19:18.085Z,0
2022-11-21T04:21:44.792Z,0
2022-11-21T04:24:09.999Z,0
2022-11-21T04:26:36.699Z,0
2022-11-21T04:29:03.367Z,0
2022-11-21T04:31:30.081Z,0
2022-11-21T04:33:56.751Z,0
2022-11-21T04:38:50.108Z,0
2022-11-21T04:41:16.822Z,0
2022-11-21T04:43:43.496Z,0
2022-11-21T04:46:10.172Z,0
2022-11-21T04:48:36.857Z,0
2022-11-21T04:53:30.230Z,0
2022-11-21T04:58:22.162Z,0
2022-11-21T05:00:47.421Z,0
2022-11-21T05:03:12.643Z,0
2022-11-21T05:05:39.324Z,0
2022-11-21T05:08:05.990Z,0
2022-11-21T05:10:32.966Z,0
2022-11-21T05:15:26.066Z,0
2022-11-21T05:17:52.749Z,0
2022-11-21T05:20:19.421Z,0
2022-11-21T05:22:46.117Z,0
2022-11-21T05:25:12.798Z,0
2022-11-21T05:27:39.485Z,0
2022-11-21T05:30:06.171Z,0
2022-11-21T05:34:59.550Z,0
2022-11-21T05:37:24.769Z,0
2022-11-21T05:39:51.453Z,0
2022-11-21T05:42:18.122Z,0
2022-11-21T05:44:44.819Z,0
2022-11-21T05:47:11.503Z,0
2022-11-21T05:49:38.190Z,0
2022-11-21T05:52:04.881Z,0
2022-11-21T05:54:31.557Z,0
2022-11-21T05:56:58.262Z,0
2022-11-21T05:59:24.923Z,0
2022-11-21T06:01:51.615Z,0
2022-11-21T06:04:18.335Z,0
2022-11-21T06:06:44.975Z,0
2022-11-21T06:09:11.668Z,0
2022-11-21T06:11:36.932Z,0
2022-11-21T06:14:03.601Z,4
2022-11-21T06:18:55.518Z,8
2022-11-21T06:21:22.204Z,12
2022-11-21T06:23:48.863Z,16
2022-11-21T06:26:15.594Z,16
2022-11-21T06:28:42.281Z,24
2022-11-21T06:36:02.318Z,96
2022-11-21T06:38:28.995Z,104
2022-11-21T06:40:55.681Z,116
2022-11-21T06:43:22.362Z,136
2022-11-21T06:48:14.338Z,160
2022-11-21T06:50:39.570Z,200
2022-11-21T06:55:32.911Z,168
2022-11-21T06:57:58.146Z,148
2022-11-21T07:00:24.813Z,192
2022-11-21T07:02:51.508Z,236
2022-11-21T07:07:44.868Z,397
2022-11-21T07:10:11.556Z,558
2022-11-21T07:12:38.235Z,674
2022-11-21T07:15:04.930Z,955
2022-11-21T07:17:31.627Z,1200
2022-11-21T07:19:58.293Z,1240
2022-11-21T07:22:25.000Z,983
2022-11-21T07:24:51.666Z,1124
2022-11-21T07:27:18.360Z,1345
2022-11-21T07:29:43.619Z,2545
2022-11-21T07:32:10.312Z,3517
2022-11-21T07:34:36.936Z,3059
2022-11-21T07:39:30.316Z,4569
2022-11-21T07:41:57.022Z,5300
2022-11-21T07:49:17.106Z,5955
2022-11-21T07:51:43.858Z,6421
2022-11-21T07:56:37.134Z,7806
2022-11-21T07:59:03.791Z,6356
2022-11-21T08:01:29.095Z,2048
2022-11-21T08:03:55.760Z,1461
2022-11-21T08:06:22.456Z,2288
2022-11-21T08:11:15.999Z,2172
2022-11-21T08:13:42.440Z,3810
2022-11-21T08:16:09.117Z,4264
2022-11-21T08:18:35.823Z,3790
2022-11-21T08:21:02.492Z,3445
2022-11-21T08:23:29.173Z,7039
2022-11-21T08:25:55.936Z,7111
2022-11-21T08:28:22.680Z,8782
2022-11-21T08:30:49.237Z,5943
2022-11-21T08:33:14.454Z,6123
2022-11-21T08:35:41.159Z,4437
2022-11-21T08:38:07.886Z,13813
2022-11-21T08:40:34.582Z,13781
2022-11-21T08:43:01.213Z,12785
2022-11-21T08:45:27.897Z,11324
2022-11-21T08:47:53.142Z,12561
2022-11-21T08:50:18.442Z,13107
2022-11-21T08:52:45.287Z,13621
2022-11-21T08:55:11.773Z,13364
2022-11-21T08:57:38.405Z,12083
2022-11-21T09:02:31.790Z,11272
2022-11-21T09:07:25.178Z,3758
2022-11-21T09:09:51.848Z,5393
2022-11-21T09:12:18.543Z,5360
2022-11-21T09:17:11.888Z,10019
2022-11-21T09:22:05.256Z,6119
2022-11-21T09:24:30.518Z,5565
2022-11-21T09:26:55.728Z,5838
2022-11-21T09:29:22.411Z,6220
2022-11-21T09:31:49.093Z,5625
2022-11-21T09:34:15.817Z,4714
2022-11-21T09:36:42.470Z,4288
2022-11-21T09:39:09.152Z,2983
2022-11-21T09:41:35.850Z,2859
2022-11-21T09:44:02.541Z,4148
2022-11-21T09:46:29.194Z,5971
2022-11-21T09:51:22.581Z,6095
2022-11-21T09:53:49.248Z,5935
2022-11-21T09:58:42.652Z,4449
2022-11-21T10:01:09.313Z,3324
2022-11-21T10:03:36.068Z,2574
2022-11-21T10:06:01.319Z,3606
2022-11-21T10:08:27.925Z,4437
2022-11-21T10:10:54.595Z,4497
2022-11-21T10:13:21.301Z,4232
2022-11-21T10:15:47.990Z,3746
2022-11-21T10:18:14.707Z,3023
2022-11-21T10:20:41.432Z,2835
2022-11-21T10:23:08.013Z,2453
2022-11-21T10:25:34.753Z,2738
2022-11-21T10:28:01.384Z,4264
2022-11-21T10:30:28.071Z,5493
2022-11-21T10:32:54.845Z,4397
2022-11-21T10:35:21.443Z,3373
2022-11-21T10:37:46.654Z,2433
2022-11-21T10:40:13.350Z,2357
2022-11-21T10:42:40.010Z,2288
2022-11-21T10:45:06.752Z,2160
2022-11-21T10:47:31.960Z,2148
2022-11-21T10:49:57.174Z,1995
2022-11-21T10:52:23.955Z,1819
2022-11-21T10:54:50.566Z,2373
2022-11-21T10:57:17.238Z,1650
2022-11-21T10:59:43.913Z,2015
2022-11-21T11:02:10.636Z,1770
2022-11-21T11:04:37.379Z,1698
2022-11-21T11:07:03.976Z,2080
2022-11-21T11:11:57.354Z,1730
2022-11-21T11:14:24.103Z,3413
2022-11-21T11:16:50.972Z,4284
2022-11-21T11:19:17.413Z,4638
2022-11-21T11:21:42.672Z,2778
2022-11-21T11:24:09.583Z,3758
2022-11-21T11:26:36.055Z,4091
2022-11-21T11:29:02.681Z,3188
2022-11-21T11:31:29.381Z,3477
2022-11-21T11:33:56.053Z,4059
2022-11-21T11:36:22.737Z,4413
2022-11-21T11:38:49.411Z,3497
2022-11-21T11:41:14.691Z,2425
2022-11-21T11:43:39.923Z,2309
2022-11-21T11:48:33.265Z,2172
2022-11-21T11:50:59.935Z,2188
2022-11-21T11:53:26.629Z,2553
2022-11-21T11:55:53.318Z,2305
2022-11-21T12:00:46.695Z,2377
2022-11-21T12:03:13.393Z,1907
2022-11-21T12:05:40.093Z,1811
2022-11-21T12:08:06.750Z,2525
2022-11-21T12:10:33.440Z,2545
2022-11-21T12:12:58.748Z,3602
2022-11-21T12:15:23.887Z,3598
2022-11-21T12:17:50.660Z,2694
2022-11-21T12:20:17.255Z,3228
2022-11-21T12:22:43.952Z,2823
2022-11-21T12:25:10.669Z,2895
2022-11-21T12:27:37.317Z,2429
2022-11-21T12:30:03.995Z,1618
2022-11-21T12:32:30.791Z,1698
2022-11-21T12:34:55.932Z,1795
2022-11-21T12:37:22.619Z,1871
2022-11-21T12:39:47.849Z,1686
2022-11-21T12:42:13.124Z,1276
2022-11-21T12:47:06.603Z,1144
2022-11-21T12:49:33.142Z,1092
2022-11-21T12:51:59.846Z,1128
2022-11-21T12:54:26.538Z,1176
2022-11-21T12:56:53.449Z,1240
2022-11-21T12:59:19.891Z,1244
2022-11-21T13:01:46.598Z,1369
2022-11-21T13:04:13.252Z,1686
2022-11-21T13:06:39.951Z,2300
2022-11-21T13:09:06.616Z,2662
2022-11-21T13:11:33.312Z,2606
2022-11-21T13:13:59.978Z,2594
2022-11-21T13:16:25.192Z,2545
2022-11-21T13:18:51.895Z,2590
2022-11-21T13:21:18.589Z,2586
2022-11-21T13:23:45.324Z,2742
2022-11-21T13:26:11.940Z,2389
2022-11-21T13:28:38.713Z,2192
2022-11-21T13:31:05.349Z,2405
2022-11-21T13:33:31.999Z,2457
2022-11-21T13:35:58.684Z,2084
2022-11-21T13:38:25.357Z,1831
2022-11-21T13:40:52.056Z,1738
2022-11-21T13:45:45.422Z,1770
2022-11-21T13:48:12.108Z,1654
2022-11-21T13:50:37.410Z,1634
2022-11-21T13:55:30.703Z,2509
2022-11-21T14:02:50.784Z,2674
2022-11-21T14:05:16.079Z,2248
2022-11-21T14:07:42.746Z,1875
2022-11-21T14:10:09.388Z,1815
2022-11-21T14:15:01.280Z,1525
2022-11-21T14:17:27.969Z,1566
2022-11-21T14:19:54.660Z,1513
2022-11-21T14:22:21.455Z,1285
2022-11-21T14:24:48.070Z,1244
2022-11-21T14:27:14.710Z,1240
2022-11-21T14:29:41.579Z,1232
2022-11-21T14:32:08.137Z,1333
2022-11-21T14:34:34.753Z,1321
2022-11-21T14:37:01.586Z,871
2022-11-21T14:39:28.345Z,678
2022-11-21T14:44:21.905Z,626
2022-11-21T14:46:46.913Z,582
2022-11-21T14:49:12.047Z,509
2022-11-21T14:51:38.805Z,449
2022-11-21T14:54:05.707Z,413
2022-11-21T14:56:32.030Z,381
2022-11-21T14:58:58.704Z,365
2022-11-21T15:01:25.388Z,349
2022-11-21T15:08:45.945Z,305
2022-11-21T15:11:12.304Z,285
2022-11-21T15:13:38.980Z,248
2022-11-21T15:16:05.626Z,220
2022-11-21T15:18:32.180Z,192
2022-11-21T15:20:58.868Z,168
2022-11-21T15:23:25.555Z,152
2022-11-21T15:28:19.095Z,112
2022-11-21T15:30:45.755Z,96
2022-11-21T15:33:11.010Z,80
2022-11-21T15:35:37.651Z,68
2022-11-21T15:38:04.379Z,56
2022-11-21T15:40:31.002Z,44
2022-11-21T15:42:57.757Z,32
2022-11-21T15:45:24.247Z,24
2022-11-21T15:47:50.941Z,20
2022-11-21T15:50:17.810Z,12
2022-11-21T15:52:44.487Z,8
2022-11-21T15:55:11.161Z,4
2022-11-21T15:57:38.666Z,4
2022-11-21T16:00:04.484Z,4
2022-11-21T16:02:31.215Z,0
2022-11-21T16:04:57.976Z,0
2022-11-21T16:07:24.605Z,0
2022-11-21T16:12:16.429Z,0
2022-11-21T16:14:43.015Z,0
2022-11-21T16:17:09.814Z,0
2022-11-21T16:19:36.553Z,0
2022-11-21T16:22:03.421Z,0
2022-11-21T16:26:56.468Z,0
2022-11-21T16:29:23.297Z,0
2022-11-21T16:34:16.530Z,0
2022-11-21T16:36:43.208Z,0
2022-11-21T16:39:09.914Z,0
2022-11-21T16:41:36.531Z,0
2022-11-21T16:44:03.303Z,0
2022-11-21T16:46:28.492Z,0
2022-11-21T16:48:55.133Z,0
2022-11-21T16:51:21.914Z,0
2022-11-21T16:56:15.192Z,0
2022-11-21T16:58:41.944Z,0
2022-11-21T17:01:08.558Z,0
2022-11-21T17:03:35.301Z,0
2022-11-21T17:06:02.046Z,0
2022-11-21T17:08:28.682Z,0
2022-11-21T17:10:55.397Z,0
2022-11-21T17:13:22.106Z,0
2022-11-21T17:15:48.790Z,0
2022-11-21T17:18:13.881Z,0
2022-11-21T17:20:40.571Z,0
2022-11-21T17:23:07.270Z,0
2022-11-21T17:25:33.975Z,0
2022-11-21T17:28:00.631Z,0
2022-11-21T17:30:27.423Z,0
2022-11-21T17:32:53.994Z,0
2022-11-21T17:35:20.859Z,0
2022-11-21T17:40:14.062Z,0
2022-11-21T17:42:40.755Z,0
2022-11-21T17:45:07.574Z,0
2022-11-21T17:47:34.239Z,0
2022-11-21T17:50:00.816Z,0
2022-11-21T17:52:26.084Z,0
2022-11-21T17:54:52.775Z,0
2022-11-21T17:57:19.437Z,0
2022-11-21T17:59:44.645Z,0
2022-11-21T18:02:11.321Z,0
2022-11-21T18:04:38.016Z,0
2022-11-21T18:07:04.796Z,0
2022-11-21T18:09:31.514Z,0
2022-11-21T18:11:58.101Z,0
2022-11-21T18:14:24.873Z,0
2022-11-21T18:16:51.482Z,0
2022-11-21T18:19:18.240Z,0
2022-11-21T18:21:44.856Z,0
2022-11-21T18:24:11.485Z,0
2022-11-21T18:26:38.222Z,0
2022-11-21T18:29:03.422Z,0
2022-11-21T18:31:30.104Z,0
2022-11-21T18:33:56.787Z,0
2022-11-21T18:38:50.159Z,0
2022-11-21T18:41:16.976Z,0
2022-11-21T18:43:42.073Z,0
2022-11-21T18:46:08.769Z,0
2022-11-21T18:48:35.425Z,0
2022-11-21T18:51:02.132Z,0
2022-11-21T18:53:28.812Z,0
2022-11-21T18:55:55.492Z,0
2022-11-21T18:58:22.172Z,0
2022-11-21T19:03:15.540Z,0
2022-11-21T19:05:42.283Z,0
2022-11-21T19:08:08.909Z,0
2022-11-21T19:10:35.715Z,0
2022-11-21T19:13:00.851Z,0
2022-11-21T19:17:54.321Z,0
2022-11-21T19:20:21.021Z,0
2022-11-21T19:22:47.751Z,0
2022-11-21T19:25:12.892Z,0
2022-11-21T19:27:39.658Z,0
2022-11-21T19:32:33.057Z,0
2022-11-21T19:37:26.256Z,0
2022-11-21T19:39:52.916Z,0
2022-11-21T19:42:19.677Z,0
2022-11-21T19:44:46.290Z,0
2022-11-21T19:47:13.108Z,0
2022-11-21T19:49:38.225Z,0
2022-11-21T19:52:04.954Z,0
2022-11-21T19:54:31.597Z,0
2022-11-21T19:56:56.821Z,0
2022-11-21T19:59:23.603Z,0
2022-11-21T20:01:50.264Z,0
2022-11-21T20:04:17.020Z,0
2022-11-21T20:06:43.583Z,0
2022-11-21T20:09:10.388Z,0
2022-11-21T20:11:37.130Z,0
2022-11-21T20:14:03.771Z,0
2022-11-21T20:16:30.429Z,0
2022-11-21T20:18:57.040Z,0
2022-11-21T20:21:23.732Z,0
2022-11-21T20:23:50.369Z,0
2022-11-21T20:26:15.652Z,0
2022-11-21T20:28:42.433Z,0
2022-11-21T20:31:09.082Z,0
2022-11-21T20:33:35.719Z,0
2022-11-21T20:36:00.867Z,0
2022-11-21T20:38:27.556Z,0
2022-11-21T20:40:54.407Z,0
2022-11-21T20:43:20.933Z,0
2022-11-21T20:45:47.755Z,0
2022-11-21T20:48:12.975Z,0
2022-11-21T20:50:39.539Z,0
2022-11-21T20:53:06.237Z,0
2022-11-21T20:55:31.618Z,0
2022-11-21T21:00:24.840Z,0
2022-11-21T21:05:16.749Z,0
2022-11-21T21:07:43.517Z,0
2022-11-21T21:10:10.275Z,0
2022-11-21T21:12:36.804Z,0
2022-11-21T21:17:30.289Z,0
2022-11-21T21:19:56.867Z,0
2022-11-21T21:22:23.554Z,0
2022-11-21T21:24:50.331Z,0
2022-11-21T21:27:17.005Z,0
2022-11-21T21:29:43.596Z,0
2022-11-21T21:34:37.177Z,0
2022-11-21T21:37:03.801Z,0
2022-11-21T21:39:29.486Z,0
2022-11-21T21:41:54.217Z,0
2022-11-21T21:44:21.007Z,0
2022-11-21T21:46:47.617Z,0
2022-11-21T21:49:14.251Z,0
2022-11-21T21:51:40.977Z,0
2022-11-21T21:54:07.564Z,0
2022-11-21T21:56:34.393Z,0
2022-11-21T21:59:01.072Z,0
2022-11-21T22:01:27.635Z,0
2022-11-21T22:03:54.301Z,0
2022-11-21T22:06:20.977Z,0
2022-11-21T22:08:46.237Z,0
2022-11-21T22:11:12.993Z,0
2022-11-21T22:13:39.595Z,0
2022-11-21T22:18:31.507Z,0
2022-11-21T22:20:58.286Z,0
2022-11-21T22:23:24.872Z,0
2022-11-21T22:25:51.854Z,0
2022-11-21T22:28:18.278Z,0
2022-11-21T22:30:45.019Z,0
2022-11-21T22:33:11.613Z,0
2022-11-21T22:35:38.305Z,0
2022-11-21T22:38:05.072Z,0
2022-11-21T22:40:31.666Z,0
2022-11-21T22:42:58.400Z,0
2022-11-21T22:45:25.140Z,0
2022-11-21T22:47:50.269Z,0
2022-11-21T22:50:17.032Z,0
2022-11-21T22:55:10.447Z,0
2022-11-21T22:57:37.104Z,0
2022-11-21T23:00:03.687Z,0
2022-11-21T23:02:30.363Z,0
2022-11-21T23:04:57.202Z,0
2022-11-21T23:07:23.833Z,0
2022-11-21T23:09:50.470Z,0
2022-11-21T23:12:17.112Z,0
2022-11-21T23:17:10.817Z,0
2022-11-21T23:19:37.326Z,0
2022-11-21T23:22:02.458Z,0
2022-11-21T23:26:55.768Z,0
2022-11-21T23:29:21.005Z,0
2022-11-21T23:31:47.690Z,0
2022-11-21T23:34:14.379Z,0
2022-11-21T23:36:39.589Z,0
2022-11-21T23:39:06.323Z,0
2022-11-21T23:41:33.097Z,0
2022-11-21T23:46:26.352Z,0
2022-11-21T23:48:53.026Z,0
2022-11-21T23:51:19.860Z,0
2022-11-21T23:53:46.439Z,0
2022-11-21T23:56:13.102Z,0
